createdAt,value
2023-09-22T00:01:37.028Z,13.73
2023-09-22T00:04:06.511Z,16.30
2023-09-22T00:06:36.413Z,20.13
2023-09-22T00:09:07.253Z,16.52
2023-09-22T00:11:38.018Z,13.88
2023-09-22T00:14:08.396Z,12.95
2023-09-22T00:16:39.057Z,17.50
2023-09-22T00:19:08.625Z,18.63
2023-09-22T00:21:37.981Z,16.42
2023-09-22T00:24:10.354Z,17.85
2023-09-22T00:26:39.455Z,15.15
2023-09-22T00:29:08.522Z,15.45
2023-09-22T00:31:39.343Z,15.38
2023-09-22T00:34:08.649Z,16.05
2023-09-22T00:36:37.796Z,15.52
2023-09-22T00:39:07.116Z,18.23
2023-09-22T00:41:36.286Z,15.90
2023-09-22T00:44:05.626Z,17.77
2023-09-22T00:46:35.874Z,16.90
2023-09-22T00:49:07.092Z,15.82
2023-09-22T00:51:37.237Z,16.50
2023-09-22T00:54:06.596Z,20.80
2023-09-22T00:56:35.718Z,17.15
2023-09-22T00:59:05.477Z,17.40
2023-09-22T01:01:34.578Z,12.82
2023-09-22T01:04:03.932Z,18.33
2023-09-22T01:06:34.914Z,17.75
2023-09-22T01:09:08.200Z,17.58
2023-09-22T01:11:37.496Z,17.35
2023-09-22T01:14:07.202Z,18.70
2023-09-22T01:16:36.477Z,14.32
2023-09-22T01:19:22.104Z,17.17
2023-09-22T01:21:52.987Z,14.18
2023-09-22T01:24:22.119Z,17.50
2023-09-22T01:26:51.333Z,15.15
2023-09-22T01:29:21.336Z,18.65
2023-09-22T01:31:50.522Z,18.65
2023-09-22T01:34:19.681Z,19.40
2023-09-22T01:36:51.894Z,18.83
2023-09-22T01:39:20.993Z,18.00
2023-09-22T01:41:50.129Z,16.75
2023-09-22T01:44:19.151Z,16.63
2023-09-22T01:46:48.361Z,14.27
2023-09-22T01:49:17.433Z,17.08
2023-09-22T01:51:46.776Z,18.10
2023-09-22T01:54:17.759Z,17.15
2023-09-22T01:56:49.760Z,15.38
2023-09-22T01:59:19.025Z,15.82
2023-09-22T02:01:48.202Z,15.18
2023-09-22T02:04:17.405Z,14.73
2023-09-22T02:06:46.485Z,16.88
2023-09-22T02:09:17.443Z,16.83
2023-09-22T02:11:46.490Z,18.88
2023-09-22T02:14:18.512Z,15.20
2023-09-22T02:16:47.754Z,18.20
2023-09-22T02:19:17.093Z,18.05
2023-09-22T02:21:47.961Z,13.73
2023-09-22T02:24:18.785Z,15.85
2023-09-22T02:26:48.058Z,14.32
2023-09-22T02:29:17.359Z,16.83
2023-09-22T02:31:47.046Z,19.92
2023-09-22T02:34:22.608Z,19.50
2023-09-22T02:36:52.794Z,18.90
2023-09-22T02:39:24.008Z,16.58
2023-09-22T02:41:53.122Z,13.50
2023-09-22T02:44:22.090Z,15.63
2023-09-22T02:46:51.252Z,17.90
2023-09-22T02:49:20.479Z,16.75
2023-09-22T02:51:49.964Z,16.20
2023-09-22T02:54:19.139Z,14.85
2023-09-22T02:56:49.887Z,14.00
2023-09-22T02:59:19.977Z,14.00
2023-09-22T03:01:49.134Z,18.95
2023-09-22T03:04:18.506Z,16.55
2023-09-22T03:06:47.710Z,17.80
2023-09-22T03:09:17.271Z,15.95
2023-09-22T03:11:46.282Z,15.50
2023-09-22T03:14:17.034Z,18.10
2023-09-22T03:16:45.999Z,17.10
2023-09-22T03:19:15.095Z,16.60
2023-09-22T03:21:44.148Z,15.63
2023-09-22T03:24:13.805Z,14.70
2023-09-22T03:26:42.769Z,17.00
2023-09-22T03:29:15.840Z,15.50
2023-09-22T03:31:45.024Z,16.25
2023-09-22T03:34:13.394Z,14.93
2023-09-22T03:36:43.953Z,22.02
2023-09-22T03:39:14.780Z,14.20
2023-09-22T03:41:44.497Z,13.85
2023-09-22T03:44:16.520Z,13.98
2023-09-22T03:46:48.675Z,16.45
2023-09-22T03:49:17.712Z,14.65
2023-09-22T03:51:47.282Z,15.35
2023-09-22T03:54:16.398Z,13.38
2023-09-22T03:56:46.965Z,13.57
2023-09-22T03:59:17.728Z,12.70
2023-09-22T04:01:47.286Z,12.20
2023-09-22T04:04:17.229Z,13.93
2023-09-22T04:06:47.114Z,15.10
2023-09-22T04:09:16.157Z,12.70
2023-09-22T04:11:45.168Z,14.63
2023-09-22T04:14:14.158Z,15.82
2023-09-22T04:16:44.870Z,16.10
2023-09-22T04:19:14.289Z,14.15
2023-09-22T04:21:50.234Z,14.02
2023-09-22T04:26:51.886Z,12.88
2023-09-22T04:29:22.630Z,16.00
2023-09-22T04:31:54.025Z,13.88
2023-09-22T04:34:23.014Z,15.82
2023-09-22T04:36:52.131Z,14.27
2023-09-22T04:39:23.526Z,16.10
2023-09-22T04:41:52.657Z,16.20
2023-09-22T04:44:21.692Z,16.65
2023-09-22T04:46:50.782Z,15.27
2023-09-22T04:49:21.395Z,14.05
2023-09-22T04:51:50.415Z,14.95
2023-09-22T04:54:21.896Z,14.50
2023-09-22T04:56:51.072Z,15.05
2023-09-22T04:59:20.904Z,16.35
2023-09-22T05:01:50.173Z,16.15
2023-09-22T05:04:21.088Z,12.00
2023-09-22T05:06:50.301Z,13.57
2023-09-22T05:09:19.333Z,16.02
2023-09-22T05:11:48.299Z,16.30
2023-09-22T05:14:17.492Z,15.63
2023-09-22T05:16:46.506Z,19.35
2023-09-22T05:19:15.558Z,15.18
2023-09-22T05:21:46.511Z,16.30
2023-09-22T05:24:15.637Z,16.98
2023-09-22T05:26:44.705Z,14.38
2023-09-22T05:29:14.260Z,15.38
2023-09-22T05:31:43.501Z,16.27
2023-09-22T05:34:12.880Z,17.40
2023-09-22T05:36:42.184Z,16.63
2023-09-22T05:39:13.037Z,16.60
2023-09-22T05:41:43.882Z,17.60
2023-09-22T05:44:12.810Z,18.75
2023-09-22T05:46:41.976Z,17.08
2023-09-22T05:49:16.223Z,15.60
2023-09-22T05:51:45.431Z,18.80
2023-09-22T05:54:16.081Z,15.38
2023-09-22T05:56:45.170Z,18.23
2023-09-22T05:59:14.699Z,18.02
2023-09-22T06:01:43.794Z,18.40
2023-09-22T06:04:13.934Z,17.35
2023-09-22T06:06:44.501Z,16.63
2023-09-22T06:09:15.361Z,18.38
2023-09-22T06:11:44.427Z,17.83
2023-09-22T06:14:14.342Z,17.15
2023-09-22T06:16:43.702Z,15.30
2023-09-22T06:19:12.904Z,18.02
2023-09-22T06:21:41.997Z,17.90
2023-09-22T06:24:11.303Z,15.25
2023-09-22T06:26:42.658Z,17.13
2023-09-22T06:29:11.864Z,16.95
2023-09-22T06:31:41.011Z,18.67
2023-09-22T06:34:10.535Z,16.50
2023-09-22T06:36:39.646Z,16.52
2023-09-22T06:39:10.075Z,18.08
2023-09-22T06:41:47.697Z,19.48
2023-09-22T06:44:18.155Z,18.60
2023-09-22T06:46:47.429Z,16.80
2023-09-22T06:49:18.092Z,20.33
2023-09-22T06:51:47.275Z,18.85
2023-09-22T06:54:16.400Z,17.63
2023-09-22T06:56:50.292Z,18.30
2023-09-22T06:59:20.348Z,18.23
2023-09-22T07:01:49.565Z,19.40
2023-09-22T07:04:19.234Z,18.38
2023-09-22T07:06:48.270Z,17.67
2023-09-22T07:09:17.426Z,16.60
2023-09-22T07:11:48.095Z,18.65
2023-09-22T07:14:17.168Z,16.38
2023-09-22T07:16:46.826Z,17.60
2023-09-22T07:19:15.990Z,17.23
2023-09-22T07:21:45.129Z,17.50
2023-09-22T07:24:14.346Z,17.38
2023-09-22T07:26:43.463Z,18.42
2023-09-22T07:29:14.239Z,15.88
2023-09-22T07:31:45.500Z,19.15
2023-09-22T07:34:14.522Z,18.42
2023-09-22T07:36:44.039Z,15.75
2023-09-22T07:39:13.412Z,15.18
2023-09-22T07:41:42.746Z,20.98
2023-09-22T07:44:13.392Z,18.27
2023-09-22T07:46:44.855Z,18.88
2023-09-22T07:49:14.986Z,17.15
2023-09-22T07:51:47.205Z,18.70
2023-09-22T07:54:16.436Z,20.27
2023-09-22T07:56:48.184Z,19.42
2023-09-22T07:59:19.123Z,20.73
2023-09-22T08:01:48.355Z,16.38
2023-09-22T08:04:17.409Z,16.27
2023-09-22T08:06:49.232Z,20.40
2023-09-22T08:09:18.584Z,20.00
2023-09-22T08:11:47.642Z,17.75
2023-09-22T08:14:19.289Z,18.15
2023-09-22T08:16:49.199Z,18.08
2023-09-22T08:19:18.459Z,16.92
2023-09-22T08:21:48.818Z,17.83
2023-09-22T08:24:18.616Z,18.63
2023-09-22T08:26:49.142Z,19.08
2023-09-22T08:29:20.256Z,20.33
2023-09-22T08:31:49.246Z,18.67
2023-09-22T08:34:18.393Z,16.63
2023-09-22T08:36:47.587Z,20.20
2023-09-22T08:39:18.759Z,17.95
2023-09-22T08:41:48.096Z,18.75
2023-09-22T08:44:19.616Z,19.77
2023-09-22T08:46:50.706Z,18.42
2023-09-22T08:49:20.126Z,20.02
2023-09-22T08:51:49.659Z,16.30
2023-09-22T08:54:19.134Z,19.42
2023-09-22T08:56:48.324Z,19.08
2023-09-22T08:59:19.019Z,16.33
2023-09-22T09:01:48.158Z,20.13
2023-09-22T09:04:35.820Z,19.63
2023-09-22T09:07:06.660Z,21.02
2023-09-22T09:09:46.513Z,22.48
2023-09-22T09:12:15.960Z,20.98
2023-09-22T09:14:49.014Z,18.90
2023-09-22T09:17:22.406Z,16.52
2023-09-22T09:19:56.980Z,18.58
2023-09-22T09:22:34.665Z,20.17
2023-09-22T09:25:04.930Z,18.95
2023-09-22T09:27:34.060Z,20.65
2023-09-22T09:30:21.101Z,20.13
2023-09-22T09:32:50.527Z,19.08
2023-09-22T09:35:48.186Z,19.20
2023-09-22T09:38:20.427Z,17.38
2023-09-22T09:40:49.766Z,21.15
2023-09-22T09:43:18.932Z,20.83
2023-09-22T09:45:51.340Z,20.40
2023-09-22T09:48:22.036Z,20.00
2023-09-22T09:50:54.219Z,19.40
2023-09-22T09:53:33.965Z,21.92
2023-09-22T09:56:05.023Z,21.90
2023-09-22T09:58:41.188Z,18.13
2023-09-22T10:03:45.051Z,21.92
2023-09-22T10:06:17.279Z,19.27
2023-09-22T10:08:46.639Z,20.35
2023-09-22T10:11:16.505Z,20.40
2023-09-22T10:13:45.936Z,23.08
2023-09-22T10:16:31.469Z,17.85
2023-09-22T10:19:04.825Z,20.73
2023-09-22T10:21:59.532Z,18.05
2023-09-22T10:24:31.819Z,17.90
2023-09-22T10:27:11.612Z,20.85
2023-09-22T10:29:47.602Z,16.77
2023-09-22T10:32:31.106Z,17.98
2023-09-22T10:35:05.977Z,18.10
2023-09-22T10:37:39.374Z,19.80
2023-09-22T10:40:10.965Z,17.75
2023-09-22T10:42:43.992Z,17.38
2023-09-22T10:45:14.704Z,17.90
2023-09-22T10:47:47.061Z,17.83
2023-09-22T10:50:23.752Z,18.80
2023-09-22T10:52:57.567Z,19.08
2023-09-22T10:55:32.793Z,17.90
2023-09-22T10:58:02.158Z,19.53
2023-09-22T11:00:31.185Z,19.90
2023-09-22T11:03:08.779Z,18.38
2023-09-22T11:05:37.952Z,20.33
2023-09-22T11:08:17.824Z,21.25
2023-09-22T11:10:50.318Z,20.05
2023-09-22T11:13:20.413Z,21.45
2023-09-22T11:15:51.455Z,20.08
2023-09-22T11:18:27.326Z,17.40
2023-09-22T11:21:00.136Z,20.63
2023-09-22T11:23:29.773Z,21.15
2023-09-22T11:26:00.126Z,19.42
2023-09-22T11:28:30.620Z,20.20
2023-09-22T11:31:08.876Z,16.30
2023-09-22T11:33:39.668Z,20.52
2023-09-22T11:36:09.354Z,17.13
2023-09-22T11:38:42.341Z,17.98
2023-09-22T11:41:18.225Z,21.52
2023-09-22T11:43:48.967Z,22.25
2023-09-22T11:46:20.206Z,20.15
2023-09-22T11:49:01.749Z,19.15
2023-09-22T11:51:44.236Z,19.77
2023-09-22T11:54:18.490Z,19.85
2023-09-22T11:56:48.862Z,19.73
2023-09-22T11:59:20.381Z,17.75
2023-09-22T12:01:50.544Z,19.65
2023-09-22T12:04:21.904Z,21.25
2023-09-22T12:06:51.800Z,22.52
2023-09-22T12:09:21.327Z,18.70
2023-09-22T12:11:53.391Z,18.70
2023-09-22T12:14:22.606Z,19.58
2023-09-22T12:16:53.671Z,18.25
2023-09-22T12:19:27.215Z,18.08
2023-09-22T12:21:56.320Z,20.52
2023-09-22T12:24:25.593Z,19.08
2023-09-22T12:26:54.668Z,19.48
2023-09-22T12:29:23.767Z,20.95
2023-09-22T12:31:52.838Z,18.08
2023-09-22T12:34:23.687Z,18.77
2023-09-22T12:36:52.672Z,18.55
2023-09-22T12:39:21.623Z,20.90
2023-09-22T12:41:50.770Z,23.70
2023-09-22T12:44:19.796Z,23.83
2023-09-22T12:46:48.998Z,17.92
2023-09-22T12:49:19.075Z,20.92
2023-09-22T12:51:49.758Z,21.88
2023-09-22T12:54:19.676Z,21.48
2023-09-22T12:56:50.179Z,19.05
2023-09-22T12:59:28.049Z,22.23
2023-09-22T13:01:57.184Z,19.75
2023-09-22T13:04:30.437Z,19.27
2023-09-22T13:07:01.275Z,18.33
2023-09-22T13:09:33.147Z,16.02
2023-09-22T13:12:04.565Z,20.45
2023-09-22T13:14:33.509Z,22.73
2023-09-22T13:17:02.555Z,20.85
2023-09-22T13:19:34.383Z,18.20
2023-09-22T13:22:05.134Z,21.75
2023-09-22T13:24:34.143Z,19.58
2023-09-22T13:27:03.182Z,21.77
2023-09-22T13:29:32.620Z,21.20
2023-09-22T13:32:01.843Z,16.90
2023-09-22T13:34:35.844Z,22.00
2023-09-22T13:37:07.331Z,18.48
2023-09-22T13:39:36.458Z,18.27
2023-09-22T13:42:05.582Z,19.83
2023-09-22T13:44:34.678Z,16.65
2023-09-22T13:47:03.988Z,18.67
2023-09-22T13:49:33.153Z,20.58
2023-09-22T13:52:03.449Z,20.42
2023-09-22T13:54:34.030Z,18.90
2023-09-22T13:57:03.106Z,19.17
2023-09-22T13:59:32.103Z,20.42
2023-09-22T14:02:01.143Z,20.38
2023-09-22T14:04:30.184Z,18.45
2023-09-22T14:06:59.216Z,21.50
2023-09-22T14:09:28.537Z,21.60
2023-09-22T14:11:59.251Z,21.17
2023-09-22T14:14:28.907Z,20.15
2023-09-22T14:16:58.136Z,18.65
2023-09-22T14:19:27.377Z,16.65
2023-09-22T14:21:58.376Z,20.27
2023-09-22T14:24:28.670Z,20.13
2023-09-22T14:26:59.373Z,21.00
2023-09-22T14:29:28.378Z,21.15
2023-09-22T14:31:57.728Z,20.00
2023-09-22T14:34:26.879Z,21.85
2023-09-22T14:36:55.917Z,18.73
2023-09-22T14:39:24.964Z,22.50
2023-09-22T14:41:54.565Z,21.30
2023-09-22T14:44:25.430Z,18.60
2023-09-22T14:46:54.708Z,20.00
2023-09-22T14:49:23.903Z,22.13
2023-09-22T14:51:52.988Z,21.13
2023-09-22T14:54:23.256Z,21.08
2023-09-22T14:56:52.354Z,22.85
2023-09-22T14:59:21.594Z,19.27
2023-09-22T15:01:52.311Z,22.08
2023-09-22T15:04:21.516Z,19.13
2023-09-22T15:06:50.614Z,22.13
2023-09-22T15:09:19.674Z,20.23
2023-09-22T15:11:48.937Z,20.15
2023-09-22T15:14:18.886Z,23.38
2023-09-22T15:16:48.407Z,21.48
2023-09-22T15:19:19.269Z,21.00
2023-09-22T15:21:48.327Z,23.63
2023-09-22T15:24:17.648Z,21.30
2023-09-22T15:26:46.848Z,21.42
2023-09-22T15:29:17.818Z,21.30
2023-09-22T15:31:47.106Z,18.23
2023-09-22T15:34:20.810Z,20.52
2023-09-22T15:36:50.556Z,20.52
2023-09-22T15:39:19.668Z,18.65
2023-09-22T15:41:48.736Z,19.95
2023-09-22T15:44:18.674Z,17.42
2023-09-22T15:46:47.853Z,21.35
2023-09-22T15:49:16.917Z,18.73
2023-09-22T15:51:47.616Z,21.17
2023-09-22T15:54:17.307Z,19.33
2023-09-22T15:56:46.305Z,19.60
2023-09-22T15:59:15.400Z,17.95
2023-09-22T16:01:48.209Z,18.20
2023-09-22T16:04:20.057Z,19.48
2023-09-22T16:06:51.136Z,16.55
2023-09-22T16:09:20.360Z,16.77
2023-09-22T16:11:49.696Z,16.88
2023-09-22T16:14:18.658Z,19.40
2023-09-22T16:16:47.911Z,19.27
2023-09-22T16:19:17.299Z,18.10
2023-09-22T16:21:46.279Z,16.92
2023-09-22T16:24:16.932Z,17.63
2023-09-22T16:26:46.040Z,17.48
2023-09-22T16:29:15.067Z,18.20
2023-09-22T16:31:44.135Z,20.45
2023-09-22T16:34:16.104Z,16.27
2023-09-22T16:36:45.234Z,15.23
2023-09-22T16:39:15.934Z,17.05
2023-09-22T16:41:47.638Z,20.30
2023-09-22T16:44:16.716Z,12.80
2023-09-22T16:46:45.829Z,16.30
2023-09-22T16:49:15.082Z,15.98
2023-09-22T16:51:44.154Z,14.43
2023-09-22T16:54:13.148Z,15.27
2023-09-22T16:56:45.211Z,14.98
2023-09-22T16:59:14.185Z,15.60
2023-09-22T17:01:43.260Z,16.25
2023-09-22T17:04:12.625Z,15.07
2023-09-22T17:06:41.926Z,18.90
2023-09-22T17:09:11.896Z,16.38
2023-09-22T17:11:42.803Z,17.55
2023-09-22T17:14:11.822Z,17.08
2023-09-22T17:16:40.919Z,17.45
2023-09-22T17:19:11.687Z,15.30
2023-09-22T17:21:40.684Z,16.90
2023-09-22T17:24:10.028Z,18.73
2023-09-22T17:26:39.045Z,16.13
2023-09-22T17:29:09.768Z,16.52
2023-09-22T17:31:38.798Z,13.98
2023-09-22T17:34:08.709Z,15.75
2023-09-22T17:36:37.970Z,17.30
2023-09-22T17:39:07.785Z,17.27
2023-09-22T17:41:36.828Z,13.43
2023-09-22T17:44:06.219Z,13.27
2023-09-22T17:46:38.096Z,13.27
2023-09-22T17:49:07.183Z,13.40
2023-09-22T17:51:36.147Z,16.15
2023-09-22T17:54:05.295Z,13.85
2023-09-22T17:56:34.976Z,14.75
2023-09-22T17:59:03.990Z,12.93
2023-09-22T18:01:33.129Z,13.70
2023-09-22T18:04:04.007Z,15.18
2023-09-22T18:06:34.230Z,13.48
2023-09-22T18:09:03.731Z,11.43
2023-09-22T18:11:32.696Z,15.02
2023-09-22T18:14:02.461Z,13.57
2023-09-22T18:16:31.546Z,13.48
2023-09-22T18:19:00.558Z,16.35
2023-09-22T18:21:32.986Z,14.05
2023-09-22T18:24:03.546Z,14.43
2023-09-22T18:26:35.523Z,14.77
2023-09-22T18:29:06.102Z,13.73
2023-09-22T18:31:35.506Z,16.15
2023-09-22T18:34:09.343Z,16.15
2023-09-22T18:36:40.082Z,13.80
2023-09-22T18:39:11.608Z,13.38
2023-09-22T18:41:41.655Z,13.30
2023-09-22T18:44:10.709Z,17.40
2023-09-22T18:46:39.871Z,22.77
2023-09-22T18:49:10.420Z,18.75
2023-09-22T18:51:41.008Z,15.90
2023-09-22T18:54:10.389Z,13.90
2023-09-22T18:56:39.562Z,15.82
2023-09-22T18:59:10.348Z,16.65
2023-09-22T19:01:39.494Z,15.85
2023-09-22T19:04:08.658Z,16.10
2023-09-22T19:06:37.624Z,14.15
2023-09-22T19:09:08.247Z,14.55
2023-09-22T19:11:37.225Z,15.15
2023-09-22T19:14:06.298Z,15.73
2023-09-22T19:16:36.455Z,15.70
2023-09-22T19:19:05.699Z,13.60
2023-09-22T19:21:38.079Z,12.60
2023-09-22T19:24:10.613Z,14.00
2023-09-22T19:26:40.260Z,13.93
2023-09-22T19:29:09.271Z,15.52
2023-09-22T19:31:38.583Z,17.02
2023-09-22T19:34:07.997Z,17.33
2023-09-22T19:36:37.058Z,14.18
2023-09-22T19:39:08.007Z,15.73
2023-09-22T19:41:36.963Z,15.40
2023-09-22T19:44:06.206Z,16.42
2023-09-22T19:46:36.391Z,15.60
2023-09-22T19:49:07.500Z,16.45
2023-09-22T19:51:36.507Z,18.50
2023-09-22T19:54:06.493Z,15.38
2023-09-22T19:56:37.137Z,15.85
2023-09-22T19:59:06.663Z,13.02
2023-09-22T20:01:36.303Z,14.98
2023-09-22T20:04:06.528Z,16.63
2023-09-22T20:06:35.594Z,17.25
2023-09-22T20:09:10.891Z,15.32
2023-09-22T20:11:41.489Z,19.75
2023-09-22T20:14:10.521Z,17.10
2023-09-22T20:16:39.750Z,15.18
2023-09-22T20:19:08.863Z,14.30
2023-09-22T20:21:38.652Z,15.52
2023-09-22T20:24:08.565Z,13.60
2023-09-22T20:26:37.484Z,15.95
2023-09-22T20:29:08.159Z,17.80
2023-09-22T20:31:40.326Z,16.58
2023-09-22T20:34:10.998Z,14.80
2023-09-22T20:36:40.749Z,16.85
2023-09-22T20:39:10.007Z,14.77
2023-09-22T20:41:39.530Z,14.77
2023-09-22T20:44:10.631Z,12.90
2023-09-22T20:46:40.336Z,17.02
2023-09-22T20:49:12.715Z,14.75
2023-09-22T20:51:42.538Z,18.10
2023-09-22T20:54:13.704Z,14.40
2023-09-22T20:56:42.763Z,13.23
2023-09-22T20:59:14.585Z,19.70
2023-09-22T21:01:43.722Z,16.85
2023-09-22T21:04:15.094Z,21.40
2023-09-22T21:06:45.790Z,21.02
2023-09-22T21:09:21.066Z,17.98
2023-09-22T21:11:50.379Z,18.88
2023-09-22T21:14:21.185Z,13.95
2023-09-22T21:16:50.382Z,15.73
2023-09-22T21:19:19.485Z,21.73
2023-09-22T21:21:48.520Z,16.45
2023-09-22T21:24:17.818Z,18.88
2023-09-22T21:26:46.856Z,20.02
2023-09-22T21:29:21.217Z,23.27
2023-09-22T21:31:52.178Z,21.20
2023-09-22T21:34:22.593Z,18.00
2023-09-22T21:36:51.551Z,22.52
2023-09-22T21:39:20.523Z,18.13
2023-09-22T21:41:49.930Z,19.50
2023-09-22T21:44:22.259Z,17.50
2023-09-22T21:46:53.064Z,16.42
2023-09-22T21:49:22.084Z,19.20
2023-09-22T21:51:51.054Z,20.20
2023-09-22T21:54:20.121Z,20.08
2023-09-22T21:56:49.171Z,22.40
2023-09-22T21:59:18.213Z,21.52
2023-09-22T22:01:47.419Z,28.40
2023-09-22T22:04:18.035Z,22.45
2023-09-22T22:06:50.049Z,19.20
2023-09-22T22:09:20.587Z,21.50
2023-09-22T22:11:51.384Z,20.65
2023-09-22T22:14:20.399Z,19.75
2023-09-22T22:16:51.266Z,24.25
2023-09-22T22:19:22.334Z,24.05
2023-09-22T22:21:52.863Z,26.13
2023-09-22T22:24:23.620Z,27.40
2023-09-22T22:26:57.342Z,20.70
2023-09-22T22:29:26.324Z,22.27
2023-09-22T22:31:55.375Z,19.58
2023-09-22T22:34:26.106Z,20.67
2023-09-22T22:36:55.241Z,20.23
2023-09-22T22:39:24.488Z,22.15
2023-09-22T22:41:54.419Z,26.65
2023-09-22T22:44:23.429Z,24.77
2023-09-22T22:46:52.492Z,19.30
2023-09-22T22:49:21.707Z,22.55
2023-09-22T22:51:52.329Z,23.40
2023-09-22T22:54:21.926Z,20.42
2023-09-22T22:56:54.255Z,22.35
2023-09-22T22:59:23.324Z,20.98
2023-09-22T23:01:52.408Z,20.52
2023-09-22T23:04:21.930Z,21.90
2023-09-22T23:06:53.288Z,23.60
2023-09-22T23:09:23.109Z,22.05
2023-09-22T23:11:54.002Z,23.05
2023-09-22T23:14:26.764Z,17.08
2023-09-22T23:16:56.519Z,20.60
2023-09-22T23:19:25.521Z,21.30
2023-09-22T23:21:56.590Z,21.40
2023-09-22T23:24:26.894Z,19.50
2023-09-22T23:26:55.921Z,16.88
2023-09-22T23:29:26.290Z,20.77
2023-09-22T23:31:55.349Z,22.85
2023-09-22T23:34:24.626Z,19.67
2023-09-22T23:36:57.018Z,21.65
2023-09-22T23:39:27.275Z,19.95
2023-09-22T23:41:56.294Z,22.00
2023-09-22T23:44:27.469Z,22.95
2023-09-22T23:46:56.550Z,22.45
2023-09-22T23:49:25.593Z,23.48
2023-09-22T23:51:56.681Z,20.23
2023-09-22T23:54:27.136Z,22.63
2023-09-22T23:56:56.253Z,20.98
2023-09-22T23:59:26.284Z,22.30
